Data for 07/21/2018

Time Sea-Level Adjusted Pressure Absolute Pressure Temperature Relative Humidity Dew Point   
(mb) (inHg) (mb) (inHg) (C) (F) (%) (C) (F)
00:05 1018 30.06 847 25.01 20.3 68.6 31 3 37.4
00:10 1018 30.06 847 25.01 20.1 68.3 33 3.4 38.1
00:15 1018 30.06 847 25.01 19.7 67.4 33 3.1 37.6
00:20 1018 30.06 847 25.01 19.8 67.7 33 3.2 37.8
00:25 1018 30.06 847 25.01 19.6 67.3 36 4.4 40
00:30 1018 30.06 847 25.01 18.9 66 38 4.6 40.2
00:35 1018 30.06 847 25.01 18.6 65.4 38 4 39.3
00:40 1018 30.06 847 25.01 18.3 65 38 3.7 38.7
00:45 1018 30.06 847 25.01 18.6 65.4 38 4.1 39.5
00:50 1018 30.06 847 25.01 18.4 65.2 38 4.1 39.3
00:55 1018 30.06 847 25.01 18.4 65.1 38 4.1 39.4
01:00 1018 30.06 848 25.04 18.2 64.7 38 3.8 38.8
01:05 1018 30.06 848 25.04 18.4 65.1 37 3.7 38.7
01:10 1018 30.06 848 25.04 18.2 64.7 39 4 39.1
01:15 1019 30.09 848 25.04 17.9 64.1 42 5 41
01:20 1019 30.09 848 25.04 17.1 62.9 44 5 41
01:25 1019 30.09 848 25.04 16.6 61.9 42 3.9 39
01:30 1019 30.09 848 25.04 16.8 62.2 44 4.6 40.3
01:35 1019 30.09 848 25.04 16.3 61.4 46 4.7 40.4
01:40 1019 30.09 848 25.04 16.3 61.3 42 3.5 38.4
01:45 1019 30.09 848 25.04 17.2 62.9 39 3.2 37.7
01:50 1019 30.09 848 25.04 17.5 63.5 40 4 39.1
01:55 1019 30.09 849 25.07 17 62.6 38 2.5 36.6
02:00 1019 30.09 849 25.07 17.9 64.2 34 2.1 35.8
02:05 1019 30.09 849 25.07 18.3 65 32 1.6 35
02:10 1019 30.09 849 25.07 18.7 65.6 31 1.4 34.5
02:15 1020 30.12 849 25.07 18.7 65.7 31 1.5 34.6
02:20 1020 30.12 849 25.07 18.7 65.7 31 1.3 34.4
02:25 1020 30.12 849 25.07 18.6 65.6 31 1.2 34.2
02:30 1020 30.12 849 25.07 18.5 65.3 31 1 33.9
02:35 1020 30.12 849 25.07 18.5 65.3 30 0.9 33.6
02:40 1020 30.12 849 25.07 18.5 65.3 30 1 33.8
02:45 1020 30.12 849 25.07 18.4 65.1 30 0.7 33.3
02:50 1020 30.12 849 25.07 18.5 65.2 29 0.1 32.2
02:55 1020 30.12 849 25.07 18.6 65.4 29 0.5 33
03:00 1020 30.12 849 25.07 18.3 64.9 30 0.7 33.3
03:05 1020 30.12 849 25.07 18 64.5 33 1.6 34.8
03:10 1020 30.12 849 25.07 17.3 63.1 34 1.5 34.7
03:15 1020 30.12 849 25.07 17 62.6 34 1.1 34
03:20 1020 30.12 849 25.07 17.2 62.9 33 0.8 33.4
03:25 1020 30.12 850 25.1 17.3 63.1 35 1.7 35
03:30 1020 30.12 850 25.1 16.8 62.3 36 2 35.5
03:35 1021 30.15 850 25.1 16.5 61.6 33 0.4 32.7
03:40 1021 30.15 850 25.1 16.9 62.4 34 1.2 34.1
03:45 1020 30.12 850 25.1 16.7 62.1 36 1.7 35.1
03:50 1020 30.12 850 25.1 16.2 61.2 37 1.6 34.9
03:55 1020 30.12 850 25.1 16.1 61.1 38 1.9 35.3
04:00 1021 30.15 850 25.1 16.1 61.1 38 1.9 35.4
04:05 1021 30.15 850 25.1 15.8 60.5 42 2.9 37.2
04:10 1021 30.15 850 25.1 15.1 59.2 44 2.9 37.2
04:15 1021 30.15 850 25.1 14.7 58.5 43 2.5 36.5
04:20 1021 30.15 850 25.1 14.6 58.3 45 2.9 37.1
04:25 1021 30.15 850 25.1 14.3 57.7 46 2.9 37.2
04:30 1021 30.15 850 25.1 14.1 57.3 47 3 37.3
04:35 1021 30.15 850 25.1 13.8 56.8 46 2.4 36.4
04:40 1021 30.15 850 25.1 14.3 57.8 41 1.4 34.5
04:45 1021 30.15 850 25.1 15.1 59.1 38 1.1 33.9
04:50 1021 30.15 850 25.1 15.4 59.8 39 1.5 34.8
04:55 1021 30.15 850 25.1 15 59 40 1.7 35.1
05:00 1021 30.15 850 25.1 14.8 58.7 38 0.6 33
05:05 1021 30.15 850 25.1 15.1 59.1 39 1.4 34.6
05:10 1021 30.15 850 25.1 14.7 58.5 40 1.2 34.2
05:15 1021 30.15 850 25.1 14.4 58 42 1.6 35
05:20 1021 30.15 850 25.1 14.2 57.6 42 1.5 34.7
05:25 1021 30.15 850 25.1 14.3 57.7 41 1.2 34.2
05:30 1021 30.15 850 25.1 14.4 57.9 41 1.6 34.8
05:35 1021 30.15 850 25.1 14.3 57.7 41 1.5 34.6
05:40 1021 30.15 850 25.1 14.3 57.7 41 1.3 34.4
05:45 1021 30.15 850 25.1 14.4 57.9 41 1.5 34.7
05:50 1021 30.15 850 25.1 14.4 58 43 2 35.7
05:55 1021 30.15 850 25.1 14.4 57.9 42 1.8 35.2
06:00 1021 30.15 850 25.1 14.5 58.1 43 2.2 35.9
06:05 1021 30.15 850 25.1 14.5 58 44 2.4 36.2
06:10 1021 30.15 850 25.1 14.5 58.2 41 1.7 35
06:15 1021 30.15 850 25.1 15.1 59.1 41 2 35.7
06:20 1021 30.15 850 25.1 15 59 42 2.3 36.2
06:25 1021 30.15 850 25.1 14.9 58.8 43 2.6 36.7
06:30 1021 30.15 850 25.1 15 58.9 43 2.7 36.8
06:35 1021 30.15 850 25.1 15.1 59.1 43 2.7 36.8
06:40 1021 30.15 850 25.1 15.3 59.5 42 2.5 36.6
06:45 1021 30.15 850 25.1 15.4 59.7 43 3.1 37.6
06:50 1021 30.15 850 25.1 15.5 59.8 43 2.9 37.2
06:55 1021 30.15 850 25.1 15.8 60.5 42 2.9 37.2
07:00 1021 30.15 850 25.1 16 60.8 43 3.5 38.2
07:05 1021 30.15 850 25.1 16.2 61.1 42 3.3 38
07:10 1021 30.15 850 25.1 16.3 61.4 41 3 37.4
07:15 1021 30.15 850 25.1 16.5 61.8 38 2.3 36.1
07:20 1021 30.15 850 25.1 16.9 62.4 36 1.9 35.3
07:25 1021 30.15 850 25.1 17.8 64 33 1.6 34.9
07:30 1021 30.15 850 25.1 18.1 64.6 35 2.6 36.7
07:35 1021 30.15 850 25.1 17.9 64.2 37 3.2 37.8
07:40 1021 30.15 850 25.1 17.9 64.2 38 3.5 38.2
07:45 1021 30.15 850 25.1 17.9 64.2 39 3.9 39
07:50 1021 30.15 850 25.1 18 64.4 40 4.2 39.5
07:55 1021 30.15 850 25.1 18 64.4 39 4.1 39.4
08:00 1021 30.15 850 25.1 18.4 65.1 38 4.1 39.3
08:05 1021 30.15 850 25.1 19 66.1 38 4.4 39.9
08:10 1021 30.15 850 25.1 19.6 67.2 34 3.3 38
08:15 1021 30.15 850 25.1 20 68 33 3.5 38.3
08:20 1021 30.15 850 25.1 20.8 69.4 32 3.6 38.4
08:25 1021 30.15 850 25.1 21.8 71.2 30 3.4 38.2
08:30 1021 30.15 850 25.1 22.7 72.8 29 3.8 38.8
08:35 1021 30.15 850 25.1 23 73.4 27 3.2 37.7
08:40 1021 30.15 850 25.1 22.9 73.2 27 3.1 37.6
08:45 1021 30.15 850 25.1 23.2 73.7 26 3 37.4
08:50 1021 30.15 850 25.1 22.8 73 27 3 37.3
08:55 1021 30.15 850 25.1 22.9 73.2 28 3.9 38.9
09:00 1021 30.15 850 25.1 23.4 74.2 25 2.5 36.5
09:05 1021 30.15 850 25.1 23.8 74.9 25 2.8 37.1
09:10 1021 30.15 850 25.1 24.2 75.6 25 3.3 37.9
09:15 1021 30.15 850 25.1 24.2 75.6 25 3.3 37.9
09:20 1021 30.15 850 25.1 24.3 75.7 27 4.2 39.6
09:25 1021 30.15 850 25.1 23.3 74 29 4.3 39.7
09:30 1021 30.15 850 25.1 22.9 73.3 28 3.7 38.7
09:35 1021 30.15 850 25.1 24.1 75.4 24 2.7 36.8
09:40 1021 30.15 850 25.1 24.2 75.6 24 2.9 37.1
09:45 1021 30.15 850 25.1 24.8 76.6 24 2.9 37.3
09:50 1021 30.15 850 25.1 24.3 75.8 26 3.6 38.5
09:55 1020 30.12 850 25.1 24.4 75.8 24 2.8 37
10:00 1020 30.12 850 25.1 24.1 75.3 23 1.8 35.2
10:05 1020 30.12 849 25.07 24.5 76 23 1.9 35.4
10:10 1020 30.12 849 25.07 26 78.8 22 2.8 37
10:15 1020 30.12 849 25.07 25.9 78.6 21 2.1 35.7
10:20 1020 30.12 849 25.07 25.9 78.7 21 2.3 36.2
10:25 1020 30.12 849 25.07 26 78.8 22 2.8 37
10:30 1020 30.12 849 25.07 26.8 80.2 21 2.7 36.9
10:35 1020 30.12 849 25.07 26.5 79.6 22 3.5 38.2
10:40 1020 30.12 849 25.07 26 78.7 23 3.3 38
10:45 1020 30.12 849 25.07 26.6 79.9 22 3.3 37.9
10:50 1020 30.12 849 25.07 26.6 79.8 22 3.6 38.5
10:55 1019 30.09 849 25.07 27.3 81.2 21 3.3 37.9
11:00 1019 30.09 849 25.07 28.4 83.2 21 4.3 39.7
11:05 1019 30.09 849 25.07 28.3 82.9 22 4.6 40.3
11:10 1019 30.09 848 25.04 27.7 81.8 21 3.6 38.4
11:15 1019 30.09 848 25.04 28.1 82.6 23 5.4 41.7
11:20 1019 30.09 848 25.04 28.5 83.3 24 6 42.8
11:25 1019 30.09 848 25.04 28.8 83.8 22 5.6 42.1
11:30 1019 30.09 848 25.04 29.2 84.6 23 6 42.9
11:35 1019 30.09 848 25.04 29.3 84.8 23 6.3 43.3
11:40 1019 30.09 848 25.04 29.3 84.7 23 6.5 43.6
11:45 1019 30.09 848 25.04 29.5 85.1 23 6.3 43.3
11:50 1019 30.09 848 25.04 28.6 83.5 23 6 42.7
11:55 1019 30.09 848 25.04 28.1 82.7 24 6.3 43.3
12:00 1019 30.09 848 25.04 27.9 82.3 24 6.1 43
12:05 1019 30.09 848 25.04 27.5 81.4 24 5.7 42.3
12:10 1019 30.09 848 25.04 28 82.3 23 5.5 41.9
12:15 1019 30.09 848 25.04 28.5 83.3 21 4.7 40.5
12:20 1019 30.09 848 25.04 29.2 84.6 21 5.2 41.3
12:25 1018 30.06 848 25.04 29.5 85.1 20 4.3 39.7
12:30 1018 30.06 848 25.04 29.4 84.9 19 3.5 38.3
12:35 1018 30.06 848 25.04 29.8 85.6 18 3.3 37.9
12:40 1018 30.06 848 25.04 28.9 84 19 3.2 37.7
12:45 1018 30.06 848 25.04 29.2 84.5 18 2.9 37.3
12:50 1018 30.06 848 25.04 29.1 84.4 15 0.2 32.3
12:55 1018 30.06 847 25.01 29.7 85.4 15 0.7 33.3
13:00 1018 30.06 847 25.01 30.3 86.5 15 1.1 34
13:05 1018 30.06 847 25.01 30.8 87.4 14 1.1 33.9
13:10 1018 30.06 847 25.01 31.1 87.9 12 -1.6 29.1
13:15 1018 30.06 847 25.01 31 87.8 12 -1 30.2
13:20 1018 30.06 847 25.01 30.5 86.9 13 -0.8 30.6
13:25 1018 30.06 847 25.01 30.2 86.3 14 0 32.1
13:30 1018 30.06 847 25.01 30.2 86.4 13 -0.9 30.4
13:35 1018 30.06 847 25.01 30.8 87.4 13 -0.7 30.7
13:40 1018 30.06 847 25.01 31.6 88.9 13 -0.2 31.6
13:45 1018 30.06 847 25.01 32.4 90.3 11 -1.5 29.4
13:50 1018 30.06 847 25.01 32.7 90.9 11 -0.9 30.3
13:55 1018 30.06 847 25.01 32.3 90.1 12 0.1 32.1
14:00 1018 30.06 847 25.01 31.7 89 11 -2.1 28.3
14:05 1018 30.06 847 25.01 32.5 90.5 12 -0.7 30.7
14:10 1018 30.06 847 25.01 32.2 90 11 -1.1 30.1
14:15 1017 30.03 847 25.01 32.3 90.1 12 -0.8 30.6
14:20 1017 30.03 846 24.98 33.2 91.7 11 -0.3 31.5
14:25 1017 30.03 846 24.98 32 89.6 12 -0.8 30.6
14:30 1017 30.03 846 24.98 31.1 88 15 1.4 34.6
14:35 1017 30.03 846 24.98 31.6 88.9 13 -0.2 31.7
14:40 1017 30.03 846 24.98 31.5 88.7 12 -0.9 30.3
14:45 1017 30.03 846 24.98 31.9 89.4 12 -1 30.2
14:50 1017 30.03 846 24.98 32.5 90.4 12 -0.1 31.8
14:55 1017 30.03 846 24.98 31.1 88 13 -0.3 31.5
15:00 1017 30.03 846 24.98 31.4 88.5 13 0.4 32.8
15:05 1017 30.03 846 24.98 31.4 88.4 14 0.8 33.4
15:10 1017 30.03 846 24.98 31.4 88.4 18 4.6 40.2
15:15 1017 30.03 846 24.98 31.9 89.5 15 2.3 36.2
15:20 1017 30.03 846 24.98 32 89.5 14 2 35.6
15:25 1017 30.03 846 24.98 31.5 88.6 15 1.8 35.2
15:30 1017 30.03 846 24.98 31.9 89.5 15 2.6 36.7
15:35 1017 30.03 846 24.98 32.5 90.5 13 1.2 34.2
15:40 1016 30 846 24.98 32.4 90.4 13 1.1 33.9
15:45 1016 30 846 24.98 32.1 89.8 14 2 35.6
15:50 1016 30 845 24.95 31.9 89.5 15 2.1 35.7
15:55 1016 30 845 24.95 32.1 89.8 15 2.8 37.1
16:00 1016 30 845 24.95 32.4 90.3 16 3.8 38.9
16:05 1016 30 845 24.95 31.8 89.3 15 2.4 36.3
16:10 1016 30 845 24.95 31.2 88.1 15 2.1 35.9
16:15 1016 30 845 24.95 31.1 88 17 3.8 38.8
16:20 1016 30 845 24.95 31.3 88.4 17 3.5 38.2
16:25 1016 30 845 24.95 31 87.7 17 3.2 37.8
16:30 1016 30 845 24.95 30.7 87.3 15 1.3 34.3
16:35 1016 30 845 24.95 30.7 87.3 16 2.2 35.9
16:40 1017 30.03 846 24.98 30.6 87.1 18 4.2 39.5
16:45 1017 30.03 846 24.98 30.3 86.5 20 5.3 41.5
16:50 1017 30.03 847 25.01 29.3 84.7 23 6.1 43
16:55 1018 30.06 847 25.01 28.5 83.4 23 5.5 41.9
17:00 1018 30.06 847 25.01 28.1 82.6 23 5.4 41.8
17:05 1018 30.06 847 25.01 28 82.4 23 5 41
17:10 1018 30.06 847 25.01 27.7 81.9 25 6.2 43.1
17:15 1018 30.06 847 25.01 26.4 79.4 27 6 42.8
17:20 1018 30.06 848 25.04 26.3 79.3 27 6.1 42.9
17:25 1018 30.06 847 25.01 25.6 78.1 29 6.5 43.6
17:30 1018 30.06 847 25.01 25.3 77.6 30 6.8 44.2
17:35 1018 30.06 847 25.01 25.4 77.8 28 6.1 43
17:40 1018 30.06 847 25.01 25.6 78.1 32 7.9 46.3
17:45 1018 30.06 847 25.01 25 77 34 8.3 47
17:50 1018 30.06 847 25.01 24.8 76.6 35 8.6 47.4
17:55 1018 30.06 847 25.01 24.7 76.5 38 9.8 49.7
18:00 1018 30.06 847 25.01 24.5 76.1 38 9.4 48.9
18:05 1018 30.06 847 25.01 24.1 75.5 39 9.6 49.4
18:10 1018 30.06 847 25.01 24.6 76.2 38 9.7 49.5
18:15 1018 30.06 847 25.01 24.6 76.3 35 8.4 47.1
18:20 1018 30.06 847 25.01 24.6 76.2 34 7.8 46
18:25 1018 30.06 847 25.01 24.5 76 34 7.9 46.3
18:30 1018 30.06 847 25.01 24.6 76.2 32 7.2 44.9
18:35 1018 30.06 847 25.01 24.6 76.2 33 7.3 45.1
18:40 1018 30.06 847 25.01 24.9 76.7 31 7 44.5
18:45 1018 30.06 847 25.01 25.2 77.3 29 6.3 43.3
18:50 1018 30.06 847 25.01 25 77.1 29 6 42.8
18:55 1018 30.06 847 25.01 24.7 76.4 30 6 42.7
19:00 1018 30.06 847 25.01 24.5 76.1 29 5.6 42
19:05 1018 30.06 847 25.01 24.4 76 30 6.1 43
19:10 1018 30.06 847 25.01 24.3 75.7 30 6 42.7
19:15 1018 30.06 847 25.01 24.4 75.8 30 5.8 42.4
19:20 1018 30.06 847 25.01 24.3 75.8 29 5.6 42.1
19:25 1018 30.06 847 25.01 24.4 75.8 28 5.1 41.2
19:30 1018 30.06 847 25.01 24.4 76 29 5.7 42.2
19:35 1018 30.06 847 25.01 24.4 75.8 29 5.5 41.8
19:40 1018 30.06 847 25.01 24.3 75.8 29 5.5 41.8
19:45 1018 30.06 847 25.01 24.2 75.5 30 5.6 42.2
19:50 1018 30.06 847 25.01 23.9 75.1 31 5.8 42.4
19:55 1018 30.06 847 25.01 23.8 74.9 31 5.8 42.4
20:00 1018 30.06 847 25.01 23.7 74.7 31 5.8 42.5
20:05 1018 30.06 847 25.01 23.6 74.5 31 5.6 42.1
20:10 1018 30.06 847 25.01 23.6 74.4 32 5.9 42.7
20:15 1018 30.06 847 25.01 23.2 73.8 32 5.9 42.7
20:20 1018 30.06 847 25.01 23 73.4 33 6.1 42.9
20:25 1018 30.06 847 25.01 22.7 72.9 34 6.2 43.2
20:30 1018 30.06 847 25.01 22.3 72.2 36 6.7 44.1
20:35 1018 30.06 847 25.01 21.9 71.4 38 6.9 44.5
20:40 1018 30.06 847 25.01 21.5 70.8 40 7.6 45.7
20:45 1018 30.06 847 25.01 21 69.8 42 7.9 46.2
20:50 1018 30.06 847 25.01 20.6 69.1 43 7.9 46.2
20:55 1018 30.06 847 25.01 20.2 68.4 45 8.2 46.8
21:00 1018 30.06 847 25.01 20.1 68.2 45 8 46.5
21:05 1018 30.06 847 25.01 19.9 67.8 46 8.2 46.8
21:10 1018 30.06 847 25.01 19.9 67.7 45 7.8 46.1
21:15 1018 30.06 848 25.04 20 68 46 8.1 46.7
21:20 1018 30.06 848 25.04 19.8 67.7 46 8 46.4
21:25 1018 30.06 848 25.04 19.9 67.8 45 7.8 46.1
21:30 1019 30.09 848 25.04 20 68 47 8.4 47.2
21:35 1019 30.09 848 25.04 19.8 67.6 46 7.9 46.2
21:40 1019 30.09 848 25.04 19.7 67.5 47 8.4 47.1
21:45 1019 30.09 848 25.04 19.5 67.1 48 8.3 46.9
21:50 1019 30.09 848 25.04 19.2 66.5 50 8.7 47.7
21:55 1019 30.09 848 25.04 18.7 65.6 51 8.5 47.2
22:00 1019 30.09 848 25.04 18.7 65.6 50 8.1 46.6
22:05 1019 30.09 848 25.04 18.8 65.8 49 7.8 46.1
22:10 1019 30.09 848 25.04 18.9 66 48 7.6 45.7
22:15 1019 30.09 849 25.07 19 66.1 47 7.5 45.6
22:20 1019 30.09 849 25.07 19.1 66.4 48 7.9 46.2
22:25 1020 30.12 849 25.07 19 66.2 49 8.1 46.6
22:30 1020 30.12 849 25.07 18.9 66 48 7.8 46.1
22:35 1020 30.12 849 25.07 18.8 65.9 52 9 48.2
22:40 1020 30.12 849 25.07 17.7 63.9 56 8.9 48
22:45 1020 30.12 849 25.07 17.4 63.4 56 8.7 47.7
22:50 1020 30.12 849 25.07 17.4 63.2 56 8.6 47.5
22:55 1020 30.12 849 25.07 17.4 63.3 55 8.3 47
23:00 1020 30.12 849 25.07 17.8 64 54 8.4 47.2
23:05 1020 30.12 849 25.07 17.9 64.3 54 8.5 47.3
23:10 1020 30.12 849 25.07 18.2 64.8 52 8.4 47.1
23:15 1020 30.12 850 25.1 18.4 65 52 8.3 47
23:20 1021 30.15 850 25.1 18.1 64.7 52 8.4 47
23:25 1021 30.15 850 25.1 17.8 64.1 53 8.2 46.8
23:30 1021 30.15 850 25.1 17.8 64.1 52 8.1 46.5
23:35 1021 30.15 850 25.1 18.1 64.6 50 7.7 45.9
23:40 1021 30.15 850 25.1 18.4 65.2 51 8.2 46.8
23:45 1021 30.15 850 25.1 18.4 65 49 7.6 45.7
23:50 1021 30.15 850 25.1 18.7 65.6 44 6.2 43.2
23:55 1021 30.15 850 25.1 19.1 66.3 42 5.8 42.5
24:00 1021 30.15 851 25.13 19 66.3 42 6 42.8